Terminal Aerodrome Forecast
Issued by NWS Bismarck, ND

Home | Current Version | Previous Version | Graphics & Text | Print | Product List | Glossary On
Versions: 1 2 3 4 5 6 7 8 9 10 11 12 13 14 15 16
000
FTUS43 KBIS 262320
TAFISN
TAF
KISN 262320Z 2700/2724 09008KT P6SM VCSH OVC012
     FM270600 06005KT 4SM -RASN OVC008
     FM271600 06011KT 6SM -RA OVC010
     FM272300 07011KT P6SM -RA OVC025=

USA.gov is the U.S. government's official web portal to all federal, state and local government web resources and services.